sensor_id;sensor_type;location;lat;lon;timestamp;P1;durP1;ratioP1;P2;durP2;ratioP2
36995;SDS011;22905;50.340;10.776;2024-02-16T00:01:31;23.02;;;11.55;;
36995;SDS011;22905;50.340;10.776;2024-02-16T00:06:32;21.45;;;10.80;;
36995;SDS011;22905;50.340;10.776;2024-02-16T00:11:33;18.60;;;11.30;;
36995;SDS011;22905;50.340;10.776;2024-02-16T00:16:34;15.90;;;10.80;;
36995;SDS011;22905;50.340;10.776;2024-02-16T00:21:34;17.75;;;10.90;;
36995;SDS011;22905;50.340;10.776;2024-02-16T00:26:34;18.63;;;10.95;;
36995;SDS011;22905;50.340;10.776;2024-02-16T00:31:35;21.15;;;10.50;;
36995;SDS011;22905;50.340;10.776;2024-02-16T00:36:35;19.53;;;10.47;;
36995;SDS011;22905;50.340;10.776;2024-02-16T00:41:36;18.52;;;10.68;;
36995;SDS011;22905;50.340;10.776;2024-02-16T00:46:36;23.33;;;11.43;;
36995;SDS011;22905;50.340;10.776;2024-02-16T00:51:38;19.52;;;9.93;;
36995;SDS011;22905;50.340;10.776;2024-02-16T00:56:38;19.08;;;12.70;;
36995;SDS011;22905;50.340;10.776;2024-02-16T01:01:39;16.10;;;11.13;;
36995;SDS011;22905;50.340;10.776;2024-02-16T01:06:39;17.08;;;10.93;;
36995;SDS011;22905;50.340;10.776;2024-02-16T01:11:42;18.08;;;11.00;;
36995;SDS011;22905;50.340;10.776;2024-02-16T01:16:42;17.00;;;10.60;;
36995;SDS011;22905;50.340;10.776;2024-02-16T01:21:43;18.90;;;10.23;;
36995;SDS011;22905;50.340;10.776;2024-02-16T01:26:47;18.52;;;10.38;;
36995;SDS011;22905;50.340;10.776;2024-02-16T01:31:47;13.97;;;9.80;;
36995;SDS011;22905;50.340;10.776;2024-02-16T01:36:48;21.67;;;10.65;;
36995;SDS011;22905;50.340;10.776;2024-02-16T01:41:48;20.27;;;9.93;;
36995;SDS011;22905;50.340;10.776;2024-02-16T01:46:48;14.02;;;10.77;;
36995;SDS011;22905;50.340;10.776;2024-02-16T01:51:48;14.88;;;10.27;;
36995;SDS011;22905;50.340;10.776;2024-02-16T01:56:49;13.45;;;8.35;;
36995;SDS011;22905;50.340;10.776;2024-02-16T02:01:50;13.48;;;9.60;;
36995;SDS011;22905;50.340;10.776;2024-02-16T02:06:51;15.98;;;8.68;;
36995;SDS011;22905;50.340;10.776;2024-02-16T02:11:51;13.60;;;8.90;;
36995;SDS011;22905;50.340;10.776;2024-02-16T02:16:52;14.30;;;9.57;;
36995;SDS011;22905;50.340;10.776;2024-02-16T02:21:53;17.35;;;9.70;;
36995;SDS011;22905;50.340;10.776;2024-02-16T02:26:53;20.52;;;9.63;;
36995;SDS011;22905;50.340;10.776;2024-02-16T02:31:54;19.20;;;9.40;;
36995;SDS011;22905;50.340;10.776;2024-02-16T02:36:55;15.10;;;9.98;;
36995;SDS011;22905;50.340;10.776;2024-02-16T02:41:55;12.00;;;8.60;;
36995;SDS011;22905;50.340;10.776;2024-02-16T02:46:57;15.70;;;8.43;;
36995;SDS011;22905;50.340;10.776;2024-02-16T02:51:58;24.97;;;12.60;;
36995;SDS011;22905;50.340;10.776;2024-02-16T02:56:58;23.88;;;12.32;;
36995;SDS011;22905;50.340;10.776;2024-02-16T03:01:59;23.92;;;12.93;;
36995;SDS011;22905;50.340;10.776;2024-02-16T03:06:59;29.05;;;13.10;;
36995;SDS011;22905;50.340;10.776;2024-02-16T03:11:59;25.52;;;12.10;;
36995;SDS011;22905;50.340;10.776;2024-02-16T03:17:02;27.50;;;10.82;;
36995;SDS011;22905;50.340;10.776;2024-02-16T03:22:03;18.40;;;10.50;;
36995;SDS011;22905;50.340;10.776;2024-02-16T03:27:04;16.55;;;9.45;;
36995;SDS011;22905;50.340;10.776;2024-02-16T03:32:05;15.43;;;8.98;;
36995;SDS011;22905;50.340;10.776;2024-02-16T03:37:05;13.40;;;9.40;;
36995;SDS011;22905;50.340;10.776;2024-02-16T03:42:06;14.03;;;9.60;;
36995;SDS011;22905;50.340;10.776;2024-02-16T03:47:06;14.55;;;8.50;;
36995;SDS011;22905;50.340;10.776;2024-02-16T03:52:08;15.25;;;9.05;;
36995;SDS011;22905;50.340;10.776;2024-02-16T03:57:08;11.63;;;7.97;;
36995;SDS011;22905;50.340;10.776;2024-02-16T04:02:11;17.27;;;10.52;;
36995;SDS011;22905;50.340;10.776;2024-02-16T04:07:13;18.70;;;9.33;;
36995;SDS011;22905;50.340;10.776;2024-02-16T04:12:14;15.48;;;9.07;;
36995;SDS011;22905;50.340;10.776;2024-02-16T04:17:14;12.55;;;8.63;;
36995;SDS011;22905;50.340;10.776;2024-02-16T04:22:15;17.17;;;9.93;;
36995;SDS011;22905;50.340;10.776;2024-02-16T04:27:15;16.70;;;10.40;;
36995;SDS011;22905;50.340;10.776;2024-02-16T04:32:15;15.40;;;10.18;;
36995;SDS011;22905;50.340;10.776;2024-02-16T04:37:16;19.13;;;11.52;;
36995;SDS011;22905;50.340;10.776;2024-02-16T04:47:18;16.58;;;10.85;;
36995;SDS011;22905;50.340;10.776;2024-02-16T04:52:19;15.55;;;11.13;;
36995;SDS011;22905;50.340;10.776;2024-02-16T04:57:19;18.27;;;11.00;;
36995;SDS011;22905;50.340;10.776;2024-02-16T05:02:20;17.42;;;10.13;;
36995;SDS011;22905;50.340;10.776;2024-02-16T05:07:21;16.52;;;9.68;;
36995;SDS011;22905;50.340;10.776;2024-02-16T05:12:21;16.05;;;9.15;;
36995;SDS011;22905;50.340;10.776;2024-02-16T05:17:21;19.25;;;9.57;;
36995;SDS011;22905;50.340;10.776;2024-02-16T05:22:22;14.88;;;10.18;;
36995;SDS011;22905;50.340;10.776;2024-02-16T05:27:22;16.13;;;9.97;;
36995;SDS011;22905;50.340;10.776;2024-02-16T05:32:23;18.75;;;10.88;;
36995;SDS011;22905;50.340;10.776;2024-02-16T05:37:25;17.83;;;10.63;;
36995;SDS011;22905;50.340;10.776;2024-02-16T05:42:25;20.48;;;10.60;;
36995;SDS011;22905;50.340;10.776;2024-02-16T05:47:26;15.27;;;10.18;;
36995;SDS011;22905;50.340;10.776;2024-02-16T05:52:27;15.50;;;10.18;;
36995;SDS011;22905;50.340;10.776;2024-02-16T06:02:31;15.68;;;9.05;;
36995;SDS011;22905;50.340;10.776;2024-02-16T06:07:31;20.80;;;12.07;;
36995;SDS011;22905;50.340;10.776;2024-02-16T06:12:32;34.77;;;17.03;;
36995;SDS011;22905;50.340;10.776;2024-02-16T06:17:32;27.03;;;15.30;;
36995;SDS011;22905;50.340;10.776;2024-02-16T06:22:33;21.40;;;11.90;;
36995;SDS011;22905;50.340;10.776;2024-02-16T06:27:33;18.92;;;10.45;;
36995;SDS011;22905;50.340;10.776;2024-02-16T06:32:34;15.05;;;10.70;;
36995;SDS011;22905;50.340;10.776;2024-02-16T06:37:34;17.85;;;11.73;;
36995;SDS011;22905;50.340;10.776;2024-02-16T06:42:34;15.98;;;10.13;;
36995;SDS011;22905;50.340;10.776;2024-02-16T06:47:35;18.50;;;11.00;;
36995;SDS011;22905;50.340;10.776;2024-02-16T06:52:35;14.10;;;9.10;;
36995;SDS011;22905;50.340;10.776;2024-02-16T06:57:36;15.60;;;10.00;;
36995;SDS011;22905;50.340;10.776;2024-02-16T07:02:36;15.52;;;9.82;;
36995;SDS011;22905;50.340;10.776;2024-02-16T07:07:36;14.55;;;9.95;;
36995;SDS011;22905;50.340;10.776;2024-02-16T07:12:36;17.77;;;10.45;;
36995;SDS011;22905;50.340;10.776;2024-02-16T07:17:37;15.30;;;11.48;;
36995;SDS011;22905;50.340;10.776;2024-02-16T07:22:37;17.00;;;10.63;;
36995;SDS011;22905;50.340;10.776;2024-02-16T07:27:40;21.50;;;12.50;;
36995;SDS011;22905;50.340;10.776;2024-02-16T07:32:41;9.60;;;7.83;;
36995;SDS011;22905;50.340;10.776;2024-02-16T07:37:43;18.80;;;9.85;;
36995;SDS011;22905;50.340;10.776;2024-02-16T07:42:44;20.27;;;9.33;;
36995;SDS011;22905;50.340;10.776;2024-02-16T07:47:45;21.23;;;9.45;;
36995;SDS011;22905;50.340;10.776;2024-02-16T07:52:45;16.75;;;9.93;;
36995;SDS011;22905;50.340;10.776;2024-02-16T07:57:46;11.13;;;8.23;;
36995;SDS011;22905;50.340;10.776;2024-02-16T08:02:47;16.15;;;9.05;;
36995;SDS011;22905;50.340;10.776;2024-02-16T08:07:47;16.07;;;8.40;;
36995;SDS011;22905;50.340;10.776;2024-02-16T08:12:48;23.90;;;10.15;;
36995;SDS011;22905;50.340;10.776;2024-02-16T08:17:49;14.35;;;9.32;;
36995;SDS011;22905;50.340;10.776;2024-02-16T08:22:52;12.40;;;8.93;;
36995;SDS011;22905;50.340;10.776;2024-02-16T08:27:52;18.67;;;8.68;;
36995;SDS011;22905;50.340;10.776;2024-02-16T08:32:53;15.57;;;8.25;;
36995;SDS011;22905;50.340;10.776;2024-02-16T08:37:53;16.55;;;8.60;;
36995;SDS011;22905;50.340;10.776;2024-02-16T08:42:54;11.75;;;8.77;;
36995;SDS011;22905;50.340;10.776;2024-02-16T08:47:54;11.90;;;7.80;;
36995;SDS011;22905;50.340;10.776;2024-02-16T08:57:57;15.05;;;8.50;;
36995;SDS011;22905;50.340;10.776;2024-02-16T09:02:57;13.70;;;7.83;;
36995;SDS011;22905;50.340;10.776;2024-02-16T09:07:58;14.07;;;8.07;;
36995;SDS011;22905;50.340;10.776;2024-02-16T09:12:58;15.47;;;9.80;;
36995;SDS011;22905;50.340;10.776;2024-02-16T09:17:59;16.20;;;7.75;;
36995;SDS011;22905;50.340;10.776;2024-02-16T09:22:59;12.55;;;7.95;;
36995;SDS011;22905;50.340;10.776;2024-02-16T09:28:00;16.00;;;8.13;;
36995;SDS011;22905;50.340;10.776;2024-02-16T09:33:00;14.83;;;9.03;;
36995;SDS011;22905;50.340;10.776;2024-02-16T09:38:01;13.98;;;8.43;;
36995;SDS011;22905;50.340;10.776;2024-02-16T09:43:01;22.02;;;11.43;;
36995;SDS011;22905;50.340;10.776;2024-02-16T09:48:01;17.13;;;10.45;;
36995;SDS011;22905;50.340;10.776;2024-02-16T09:53:02;17.25;;;9.52;;
36995;SDS011;22905;50.340;10.776;2024-02-16T09:58:04;14.98;;;9.27;;
36995;SDS011;22905;50.340;10.776;2024-02-16T10:03:05;18.65;;;10.43;;
36995;SDS011;22905;50.340;10.776;2024-02-16T10:08:11;14.60;;;9.32;;
36995;SDS011;22905;50.340;10.776;2024-02-16T10:13:12;15.13;;;8.95;;
36995;SDS011;22905;50.340;10.776;2024-02-16T10:18:13;14.50;;;8.60;;
36995;SDS011;22905;50.340;10.776;2024-02-16T10:23:13;11.05;;;7.80;;
36995;SDS011;22905;50.340;10.776;2024-02-16T10:28:14;11.25;;;8.88;;
36995;SDS011;22905;50.340;10.776;2024-02-16T10:33:16;14.53;;;10.37;;
36995;SDS011;22905;50.340;10.776;2024-02-16T10:38:17;26.92;;;14.90;;
36995;SDS011;22905;50.340;10.776;2024-02-16T10:43:19;39.85;;;25.75;;
36995;SDS011;22905;50.340;10.776;2024-02-16T10:48:20;35.38;;;23.42;;
36995;SDS011;22905;50.340;10.776;2024-02-16T10:53:24;21.70;;;16.80;;
36995;SDS011;22905;50.340;10.776;2024-02-16T10:58:29;25.48;;;17.58;;
36995;SDS011;22905;50.340;10.776;2024-02-16T11:03:31;16.20;;;12.98;;
36995;SDS011;22905;50.340;10.776;2024-02-16T11:08:32;24.90;;;15.57;;
36995;SDS011;22905;50.340;10.776;2024-02-16T11:13:38;24.83;;;18.90;;
36995;SDS011;22905;50.340;10.776;2024-02-16T11:18:41;17.95;;;9.25;;
36995;SDS011;22905;50.340;10.776;2024-02-16T11:23:46;11.38;;;7.63;;
36995;SDS011;22905;50.340;10.776;2024-02-16T11:28:48;10.93;;;8.18;;
36995;SDS011;22905;50.340;10.776;2024-02-16T11:33:48;15.80;;;9.33;;
36995;SDS011;22905;50.340;10.776;2024-02-16T11:38:48;10.32;;;6.82;;
36995;SDS011;22905;50.340;10.776;2024-02-16T11:43:49;19.87;;;14.27;;
36995;SDS011;22905;50.340;10.776;2024-02-16T11:48:49;18.17;;;10.23;;
36995;SDS011;22905;50.340;10.776;2024-02-16T11:53:56;11.57;;;8.82;;
36995;SDS011;22905;50.340;10.776;2024-02-16T11:58:57;13.30;;;8.05;;
36995;SDS011;22905;50.340;10.776;2024-02-16T12:03:57;9.32;;;6.72;;
36995;SDS011;22905;50.340;10.776;2024-02-16T12:08:57;15.52;;;7.30;;
36995;SDS011;22905;50.340;10.776;2024-02-16T12:13:58;9.47;;;7.13;;
36995;SDS011;22905;50.340;10.776;2024-02-16T12:19:04;13.93;;;6.95;;
36995;SDS011;22905;50.340;10.776;2024-02-16T12:24:05;9.35;;;6.30;;
36995;SDS011;22905;50.340;10.776;2024-02-16T12:29:05;9.63;;;6.57;;
36995;SDS011;22905;50.340;10.776;2024-02-16T12:34:05;8.45;;;6.50;;
36995;SDS011;22905;50.340;10.776;2024-02-16T12:39:07;11.73;;;6.20;;
36995;SDS011;22905;50.340;10.776;2024-02-16T12:44:11;9.98;;;6.32;;
36995;SDS011;22905;50.340;10.776;2024-02-16T12:49:11;19.37;;;13.57;;
36995;SDS011;22905;50.340;10.776;2024-02-16T12:54:12;14.57;;;9.95;;
36995;SDS011;22905;50.340;10.776;2024-02-16T12:59:14;9.98;;;7.40;;
36995;SDS011;22905;50.340;10.776;2024-02-16T13:04:15;16.33;;;8.15;;
36995;SDS011;22905;50.340;10.776;2024-02-16T13:09:21;8.68;;;6.65;;
36995;SDS011;22905;50.340;10.776;2024-02-16T13:20:36;12.23;;;7.47;;
36995;SDS011;22905;50.340;10.776;2024-02-16T13:25:39;12.48;;;7.07;;
36995;SDS011;22905;50.340;10.776;2024-02-16T13:30:39;11.38;;;7.38;;
36995;SDS011;22905;50.340;10.776;2024-02-16T13:35:39;8.47;;;5.97;;
36995;SDS011;22905;50.340;10.776;2024-02-16T13:40:40;31.77;;;16.13;;
36995;SDS011;22905;50.340;10.776;2024-02-16T13:45:53;17.33;;;9.33;;
36995;SDS011;22905;50.340;10.776;2024-02-16T13:50:54;12.25;;;6.53;;
36995;SDS011;22905;50.340;10.776;2024-02-16T13:55:54;10.55;;;7.15;;
36995;SDS011;22905;50.340;10.776;2024-02-16T14:00:55;10.43;;;4.70;;
36995;SDS011;22905;50.340;10.776;2024-02-16T14:05:56;8.70;;;3.83;;
36995;SDS011;22905;50.340;10.776;2024-02-16T14:10:56;7.82;;;3.30;;
36995;SDS011;22905;50.340;10.776;2024-02-16T14:15:57;4.50;;;3.00;;
36995;SDS011;22905;50.340;10.776;2024-02-16T14:20:57;5.50;;;3.05;;
36995;SDS011;22905;50.340;10.776;2024-02-16T14:25:57;6.50;;;3.20;;
36995;SDS011;22905;50.340;10.776;2024-02-16T14:30:58;5.63;;;3.33;;
36995;SDS011;22905;50.340;10.776;2024-02-16T14:35:58;18.77;;;8.07;;
36995;SDS011;22905;50.340;10.776;2024-02-16T14:40:59;12.00;;;6.10;;
36995;SDS011;22905;50.340;10.776;2024-02-16T14:46:03;13.25;;;5.00;;
36995;SDS011;22905;50.340;10.776;2024-02-16T14:51:06;7.90;;;4.53;;
36995;SDS011;22905;50.340;10.776;2024-02-16T14:56:06;13.73;;;4.57;;
36995;SDS011;22905;50.340;10.776;2024-02-16T15:01:07;8.02;;;4.68;;
36995;SDS011;22905;50.340;10.776;2024-02-16T15:06:09;8.52;;;5.13;;
36995;SDS011;22905;50.340;10.776;2024-02-16T15:11:09;12.43;;;7.33;;
36995;SDS011;22905;50.340;10.776;2024-02-16T15:16:09;13.10;;;5.70;;
36995;SDS011;22905;50.340;10.776;2024-02-16T15:21:09;14.37;;;6.57;;
36995;SDS011;22905;50.340;10.776;2024-02-16T15:26:11;9.38;;;5.28;;
36995;SDS011;22905;50.340;10.776;2024-02-16T15:31:11;18.15;;;6.93;;
36995;SDS011;22905;50.340;10.776;2024-02-16T15:36:11;20.87;;;8.03;;
36995;SDS011;22905;50.340;10.776;2024-02-16T15:41:12;18.10;;;7.45;;
36995;SDS011;22905;50.340;10.776;2024-02-16T15:46:13;18.08;;;7.38;;
36995;SDS011;22905;50.340;10.776;2024-02-16T15:51:13;17.90;;;7.03;;
36995;SDS011;22905;50.340;10.776;2024-02-16T15:56:14;17.07;;;6.23;;
36995;SDS011;22905;50.340;10.776;2024-02-16T16:01:14;17.55;;;7.10;;
36995;SDS011;22905;50.340;10.776;2024-02-16T16:06:14;15.63;;;8.10;;
36995;SDS011;22905;50.340;10.776;2024-02-16T16:11:15;17.73;;;10.57;;
36995;SDS011;22905;50.340;10.776;2024-02-16T16:16:16;16.70;;;11.32;;
36995;SDS011;22905;50.340;10.776;2024-02-16T16:21:16;16.70;;;9.27;;
36995;SDS011;22905;50.340;10.776;2024-02-16T16:26:17;14.13;;;7.60;;
36995;SDS011;22905;50.340;10.776;2024-02-16T16:31:20;16.38;;;11.27;;
36995;SDS011;22905;50.340;10.776;2024-02-16T16:36:20;13.00;;;8.87;;
36995;SDS011;22905;50.340;10.776;2024-02-16T16:41:21;21.23;;;11.30;;
36995;SDS011;22905;50.340;10.776;2024-02-16T16:46:21;24.67;;;15.25;;
36995;SDS011;22905;50.340;10.776;2024-02-16T16:51:21;22.37;;;14.83;;
36995;SDS011;22905;50.340;10.776;2024-02-16T16:56:21;33.50;;;19.13;;
36995;SDS011;22905;50.340;10.776;2024-02-16T17:01:22;46.58;;;26.38;;
36995;SDS011;22905;50.340;10.776;2024-02-16T17:06:22;37.38;;;21.05;;
36995;SDS011;22905;50.340;10.776;2024-02-16T17:11:23;33.40;;;14.20;;
36995;SDS011;22905;50.340;10.776;2024-02-16T17:16:24;34.60;;;13.23;;
36995;SDS011;22905;50.340;10.776;2024-02-16T17:21:24;19.02;;;11.23;;
36995;SDS011;22905;50.340;10.776;2024-02-16T17:26:24;31.35;;;13.15;;
36995;SDS011;22905;50.340;10.776;2024-02-16T17:31:24;26.08;;;14.60;;
36995;SDS011;22905;50.340;10.776;2024-02-16T17:36:25;29.25;;;14.70;;
36995;SDS011;22905;50.340;10.776;2024-02-16T17:41:25;26.75;;;14.57;;
36995;SDS011;22905;50.340;10.776;2024-02-16T17:46:26;28.65;;;14.75;;
36995;SDS011;22905;50.340;10.776;2024-02-16T18:01:29;26.77;;;15.02;;
36995;SDS011;22905;50.340;10.776;2024-02-16T18:06:29;24.80;;;14.80;;
36995;SDS011;22905;50.340;10.776;2024-02-16T18:11:31;23.97;;;12.50;;
36995;SDS011;22905;50.340;10.776;2024-02-16T18:16:31;32.20;;;14.57;;
36995;SDS011;22905;50.340;10.776;2024-02-16T18:21:31;29.98;;;14.70;;
36995;SDS011;22905;50.340;10.776;2024-02-16T18:26:32;38.47;;;19.37;;
36995;SDS011;22905;50.340;10.776;2024-02-16T18:31:34;44.17;;;16.40;;
36995;SDS011;22905;50.340;10.776;2024-02-16T18:36:37;23.08;;;13.27;;
36995;SDS011;22905;50.340;10.776;2024-02-16T18:41:37;32.00;;;15.25;;
36995;SDS011;22905;50.340;10.776;2024-02-16T18:46:39;33.57;;;19.37;;
36995;SDS011;22905;50.340;10.776;2024-02-16T18:51:40;33.63;;;18.35;;
36995;SDS011;22905;50.340;10.776;2024-02-16T18:56:41;36.15;;;20.85;;
36995;SDS011;22905;50.340;10.776;2024-02-16T19:01:41;39.58;;;22.30;;
36995;SDS011;22905;50.340;10.776;2024-02-16T19:06:41;33.72;;;20.83;;
36995;SDS011;22905;50.340;10.776;2024-02-16T19:11:42;38.38;;;18.98;;
36995;SDS011;22905;50.340;10.776;2024-02-16T19:16:42;43.30;;;21.98;;
36995;SDS011;22905;50.340;10.776;2024-02-16T19:21:43;39.38;;;21.63;;
36995;SDS011;22905;50.340;10.776;2024-02-16T19:26:43;43.63;;;24.13;;
36995;SDS011;22905;50.340;10.776;2024-02-16T19:31:44;35.23;;;20.67;;
36995;SDS011;22905;50.340;10.776;2024-02-16T19:36:44;30.25;;;20.10;;
36995;SDS011;22905;50.340;10.776;2024-02-16T19:41:45;48.78;;;26.98;;
36995;SDS011;22905;50.340;10.776;2024-02-16T19:46:46;36.30;;;18.23;;
36995;SDS011;22905;50.340;10.776;2024-02-16T19:51:47;21.97;;;10.77;;
36995;SDS011;22905;50.340;10.776;2024-02-16T19:56:47;13.30;;;8.70;;
36995;SDS011;22905;50.340;10.776;2024-02-16T20:01:47;13.33;;;5.97;;
36995;SDS011;22905;50.340;10.776;2024-02-16T20:06:48;11.40;;;5.38;;
36995;SDS011;22905;50.340;10.776;2024-02-16T20:11:48;10.70;;;5.65;;
36995;SDS011;22905;50.340;10.776;2024-02-16T20:16:49;17.63;;;5.20;;
36995;SDS011;22905;50.340;10.776;2024-02-16T20:21:49;17.52;;;6.78;;
36995;SDS011;22905;50.340;10.776;2024-02-16T20:26:49;16.42;;;6.38;;
36995;SDS011;22905;50.340;10.776;2024-02-16T20:31:50;13.30;;;6.27;;
36995;SDS011;22905;50.340;10.776;2024-02-16T20:36:50;12.98;;;6.55;;
36995;SDS011;22905;50.340;10.776;2024-02-16T20:41:51;13.52;;;7.22;;
36995;SDS011;22905;50.340;10.776;2024-02-16T20:46:51;18.65;;;9.35;;
36995;SDS011;22905;50.340;10.776;2024-02-16T20:51:52;14.90;;;7.83;;
36995;SDS011;22905;50.340;10.776;2024-02-16T20:56:52;21.23;;;8.90;;
36995;SDS011;22905;50.340;10.776;2024-02-16T21:01:52;12.80;;;8.00;;
36995;SDS011;22905;50.340;10.776;2024-02-16T21:06:53;24.08;;;8.77;;
36995;SDS011;22905;50.340;10.776;2024-02-16T21:11:56;15.85;;;8.52;;
36995;SDS011;22905;50.340;10.776;2024-02-16T21:16:57;17.00;;;8.18;;
36995;SDS011;22905;50.340;10.776;2024-02-16T21:21:57;19.10;;;9.70;;
36995;SDS011;22905;50.340;10.776;2024-02-16T21:26:58;16.50;;;9.73;;
36995;SDS011;22905;50.340;10.776;2024-02-16T21:31:58;20.52;;;10.00;;
36995;SDS011;22905;50.340;10.776;2024-02-16T21:36:59;15.77;;;8.48;;
36995;SDS011;22905;50.340;10.776;2024-02-16T21:41:59;24.40;;;9.60;;
36995;SDS011;22905;50.340;10.776;2024-02-16T21:46:59;16.50;;;9.37;;
36995;SDS011;22905;50.340;10.776;2024-02-16T21:57:03;22.20;;;10.80;;
36995;SDS011;22905;50.340;10.776;2024-02-16T22:02:03;25.35;;;10.65;;
36995;SDS011;22905;50.340;10.776;2024-02-16T22:07:05;17.43;;;10.23;;
36995;SDS011;22905;50.340;10.776;2024-02-16T22:12:05;24.63;;;11.27;;
36995;SDS011;22905;50.340;10.776;2024-02-16T22:17:06;21.73;;;11.50;;
36995;SDS011;22905;50.340;10.776;2024-02-16T22:22:06;25.70;;;11.93;;
36995;SDS011;22905;50.340;10.776;2024-02-16T22:27:07;15.73;;;9.60;;
36995;SDS011;22905;50.340;10.776;2024-02-16T22:32:07;23.40;;;12.43;;
36995;SDS011;22905;50.340;10.776;2024-02-16T22:37:07;18.90;;;9.60;;
36995;SDS011;22905;50.340;10.776;2024-02-16T22:42:07;13.07;;;8.27;;
36995;SDS011;22905;50.340;10.776;2024-02-16T22:47:08;15.27;;;9.15;;
36995;SDS011;22905;50.340;10.776;2024-02-16T22:52:08;18.33;;;10.50;;
36995;SDS011;22905;50.340;10.776;2024-02-16T22:57:08;15.13;;;9.32;;
36995;SDS011;22905;50.340;10.776;2024-02-16T23:02:09;19.77;;;9.30;;
36995;SDS011;22905;50.340;10.776;2024-02-16T23:07:09;17.45;;;10.82;;
36995;SDS011;22905;50.340;10.776;2024-02-16T23:12:10;18.05;;;10.00;;
36995;SDS011;22905;50.340;10.776;2024-02-16T23:17:12;19.47;;;10.13;;
36995;SDS011;22905;50.340;10.776;2024-02-16T23:22:13;19.70;;;10.27;;
36995;SDS011;22905;50.340;10.776;2024-02-16T23:27:13;19.98;;;10.43;;
36995;SDS011;22905;50.340;10.776;2024-02-16T23:32:14;15.65;;;9.88;;
36995;SDS011;22905;50.340;10.776;2024-02-16T23:37:14;14.57;;;9.17;;
36995;SDS011;22905;50.340;10.776;2024-02-16T23:42:14;14.82;;;9.15;;
36995;SDS011;22905;50.340;10.776;2024-02-16T23:47:15;15.65;;;9.88;;
36995;SDS011;22905;50.340;10.776;2024-02-16T23:52:15;14.68;;;9.90;;
36995;SDS011;22905;50.340;10.776;2024-02-16T23:57:16;16.17;;;9.90;;
